sensor_id;sensor_type;location;lat;lon;timestamp;temperature;humidity
23156;DHT22;11746;50.876;4.246;2023-07-09T00:01:40;26.10;99.90
23156;DHT22;11746;50.876;4.246;2023-07-09T00:04:12;26.10;99.90
23156;DHT22;11746;50.876;4.246;2023-07-09T00:06:39;26.20;99.90
23156;DHT22;11746;50.876;4.246;2023-07-09T00:09:06;26.10;99.90
23156;DHT22;11746;50.876;4.246;2023-07-09T00:11:37;26.00;99.90
23156;DHT22;11746;50.876;4.246;2023-07-09T00:14:05;25.90;99.90
23156;DHT22;11746;50.876;4.246;2023-07-09T00:16:31;25.90;99.90
23156;DHT22;11746;50.876;4.246;2023-07-09T00:18:57;25.80;99.90
23156;DHT22;11746;50.876;4.246;2023-07-09T00:21:23;25.80;99.90
23156;DHT22;11746;50.876;4.246;2023-07-09T00:23:49;25.80;99.90
23156;DHT22;11746;50.876;4.246;2023-07-09T00:26:17;25.80;99.90
23156;DHT22;11746;50.876;4.246;2023-07-09T00:28:43;25.70;99.90
23156;DHT22;11746;50.876;4.246;2023-07-09T00:31:15;25.80;99.90
23156;DHT22;11746;50.876;4.246;2023-07-09T00:33:42;25.80;99.90
23156;DHT22;11746;50.876;4.246;2023-07-09T00:36:18;25.70;99.90
23156;DHT22;11746;50.876;4.246;2023-07-09T00:38:44;25.80;99.90
23156;DHT22;11746;50.876;4.246;2023-07-09T00:41:19;25.90;99.90
23156;DHT22;11746;50.876;4.246;2023-07-09T00:43:47;25.90;99.90
23156;DHT22;11746;50.876;4.246;2023-07-09T00:48:50;25.80;99.90
23156;DHT22;11746;50.876;4.246;2023-07-09T00:51:19;25.80;99.90
23156;DHT22;11746;50.876;4.246;2023-07-09T00:53:48;25.80;99.90
23156;DHT22;11746;50.876;4.246;2023-07-09T00:56:38;25.80;99.90
23156;DHT22;11746;50.876;4.246;2023-07-09T00:59:07;25.70;99.90
23156;DHT22;11746;50.876;4.246;2023-07-09T01:01:35;25.70;99.90
23156;DHT22;11746;50.876;4.246;2023-07-09T01:04:02;25.70;99.90
23156;DHT22;11746;50.876;4.246;2023-07-09T01:06:39;25.70;99.90
23156;DHT22;11746;50.876;4.246;2023-07-09T01:09:07;25.70;99.90
23156;DHT22;11746;50.876;4.246;2023-07-09T01:11:34;25.70;99.90
23156;DHT22;11746;50.876;4.246;2023-07-09T01:14:05;25.70;99.90
23156;DHT22;11746;50.876;4.246;2023-07-09T01:16:38;25.70;99.90
23156;DHT22;11746;50.876;4.246;2023-07-09T01:19:05;25.70;99.90
23156;DHT22;11746;50.876;4.246;2023-07-09T01:21:31;25.70;99.90
23156;DHT22;11746;50.876;4.246;2023-07-09T01:23:58;25.70;99.90
23156;DHT22;11746;50.876;4.246;2023-07-09T01:26:26;25.60;99.90
23156;DHT22;11746;50.876;4.246;2023-07-09T01:28:54;25.80;99.90
23156;DHT22;11746;50.876;4.246;2023-07-09T01:31:20;25.80;99.90
23156;DHT22;11746;50.876;4.246;2023-07-09T01:33:47;25.70;99.90
23156;DHT22;11746;50.876;4.246;2023-07-09T01:36:19;25.80;99.90
23156;DHT22;11746;50.876;4.246;2023-07-09T01:38:50;25.60;99.90
23156;DHT22;11746;50.876;4.246;2023-07-09T01:41:16;25.70;99.90
23156;DHT22;11746;50.876;4.246;2023-07-09T01:43:44;25.60;99.90
23156;DHT22;11746;50.876;4.246;2023-07-09T01:46:11;25.70;99.90
23156;DHT22;11746;50.876;4.246;2023-07-09T01:48:40;25.60;99.90
23156;DHT22;11746;50.876;4.246;2023-07-09T01:51:12;25.60;99.90
23156;DHT22;11746;50.876;4.246;2023-07-09T01:53:40;25.60;99.90
23156;DHT22;11746;50.876;4.246;2023-07-09T01:56:06;25.70;99.90
23156;DHT22;11746;50.876;4.246;2023-07-09T01:58:35;25.60;99.90
23156;DHT22;11746;50.876;4.246;2023-07-09T02:01:01;25.70;99.90
23156;DHT22;11746;50.876;4.246;2023-07-09T02:03:27;25.70;99.90
23156;DHT22;11746;50.876;4.246;2023-07-09T02:05:54;25.70;99.90
23156;DHT22;11746;50.876;4.246;2023-07-09T02:08:20;25.60;99.90
23156;DHT22;11746;50.876;4.246;2023-07-09T02:10:49;25.60;99.90
23156;DHT22;11746;50.876;4.246;2023-07-09T02:13:16;25.60;99.90
23156;DHT22;11746;50.876;4.246;2023-07-09T02:15:43;25.60;99.90
23156;DHT22;11746;50.876;4.246;2023-07-09T02:18:15;25.70;99.90
23156;DHT22;11746;50.876;4.246;2023-07-09T02:20:41;25.70;99.90
23156;DHT22;11746;50.876;4.246;2023-07-09T02:23:08;25.60;99.90
23156;DHT22;11746;50.876;4.246;2023-07-09T02:25:34;25.60;99.90
23156;DHT22;11746;50.876;4.246;2023-07-09T02:28:00;25.50;99.90
23156;DHT22;11746;50.876;4.246;2023-07-09T02:30:26;25.60;99.90
23156;DHT22;11746;50.876;4.246;2023-07-09T02:32:52;25.60;99.90
23156;DHT22;11746;50.876;4.246;2023-07-09T02:35:20;25.50;99.90
23156;DHT22;11746;50.876;4.246;2023-07-09T02:37:46;25.40;99.90
23156;DHT22;11746;50.876;4.246;2023-07-09T02:40:13;25.40;99.90
23156;DHT22;11746;50.876;4.246;2023-07-09T02:42:39;25.40;99.90
23156;DHT22;11746;50.876;4.246;2023-07-09T02:45:08;25.30;99.90
23156;DHT22;11746;50.876;4.246;2023-07-09T02:47:34;25.20;99.90
23156;DHT22;11746;50.876;4.246;2023-07-09T02:50:00;25.10;99.90
23156;DHT22;11746;50.876;4.246;2023-07-09T02:52:26;25.10;99.90
23156;DHT22;11746;50.876;4.246;2023-07-09T02:54:52;25.10;99.90
23156;DHT22;11746;50.876;4.246;2023-07-09T02:57:18;25.10;99.90
23156;DHT22;11746;50.876;4.246;2023-07-09T02:59:44;25.10;99.90
23156;DHT22;11746;50.876;4.246;2023-07-09T03:02:10;25.20;99.90
23156;DHT22;11746;50.876;4.246;2023-07-09T03:04:36;25.20;99.90
23156;DHT22;11746;50.876;4.246;2023-07-09T03:07:01;25.20;99.90
23156;DHT22;11746;50.876;4.246;2023-07-09T03:09:30;24.90;99.90
23156;DHT22;11746;50.876;4.246;2023-07-09T03:11:56;24.90;99.90
23156;DHT22;11746;50.876;4.246;2023-07-09T03:14:22;24.90;99.90
23156;DHT22;11746;50.876;4.246;2023-07-09T03:16:48;24.70;99.90
23156;DHT22;11746;50.876;4.246;2023-07-09T03:19:14;24.40;99.90
23156;DHT22;11746;50.876;4.246;2023-07-09T03:21:40;24.20;99.90
23156;DHT22;11746;50.876;4.246;2023-07-09T03:24:06;24.00;99.90
23156;DHT22;11746;50.876;4.246;2023-07-09T03:26:32;24.00;99.90
23156;DHT22;11746;50.876;4.246;2023-07-09T03:28:58;23.90;99.90
23156;DHT22;11746;50.876;4.246;2023-07-09T03:31:24;24.00;99.90
23156;DHT22;11746;50.876;4.246;2023-07-09T03:33:51;24.10;99.90
23156;DHT22;11746;50.876;4.246;2023-07-09T03:36:18;24.10;99.90
23156;DHT22;11746;50.876;4.246;2023-07-09T03:38:45;23.90;99.90
23156;DHT22;11746;50.876;4.246;2023-07-09T03:41:11;23.90;99.90
23156;DHT22;11746;50.876;4.246;2023-07-09T03:43:37;23.90;99.90
23156;DHT22;11746;50.876;4.246;2023-07-09T03:46:03;23.80;99.90
23156;DHT22;11746;50.876;4.246;2023-07-09T03:48:29;23.60;99.90
23156;DHT22;11746;50.876;4.246;2023-07-09T03:50:55;23.30;99.90
23156;DHT22;11746;50.876;4.246;2023-07-09T03:53:21;23.20;99.90
23156;DHT22;11746;50.876;4.246;2023-07-09T03:55:52;23.10;99.90
23156;DHT22;11746;50.876;4.246;2023-07-09T03:58:18;23.00;99.90
23156;DHT22;11746;50.876;4.246;2023-07-09T04:00:44;23.00;99.90
23156;DHT22;11746;50.876;4.246;2023-07-09T04:03:10;23.10;99.90
23156;DHT22;11746;50.876;4.246;2023-07-09T04:05:37;23.20;99.90
23156;DHT22;11746;50.876;4.246;2023-07-09T04:08:03;23.20;99.90
23156;DHT22;11746;50.876;4.246;2023-07-09T04:10:30;23.30;99.90
23156;DHT22;11746;50.876;4.246;2023-07-09T04:12:56;23.50;99.90
23156;DHT22;11746;50.876;4.246;2023-07-09T04:15:21;23.60;99.90
23156;DHT22;11746;50.876;4.246;2023-07-09T04:17:50;23.60;99.90
23156;DHT22;11746;50.876;4.246;2023-07-09T04:20:17;23.60;99.90
23156;DHT22;11746;50.876;4.246;2023-07-09T04:22:43;23.60;99.90
23156;DHT22;11746;50.876;4.246;2023-07-09T04:25:10;23.60;99.90
23156;DHT22;11746;50.876;4.246;2023-07-09T04:27:37;23.50;99.90
23156;DHT22;11746;50.876;4.246;2023-07-09T04:30:03;23.60;99.90
23156;DHT22;11746;50.876;4.246;2023-07-09T04:32:31;23.60;99.90
23156;DHT22;11746;50.876;4.246;2023-07-09T04:34:56;23.60;99.90
23156;DHT22;11746;50.876;4.246;2023-07-09T04:37:23;23.60;99.90
23156;DHT22;11746;50.876;4.246;2023-07-09T04:39:49;23.70;99.90
23156;DHT22;11746;50.876;4.246;2023-07-09T04:42:16;23.80;99.90
23156;DHT22;11746;50.876;4.246;2023-07-09T04:44:44;23.80;99.90
23156;DHT22;11746;50.876;4.246;2023-07-09T04:47:10;23.80;99.90
23156;DHT22;11746;50.876;4.246;2023-07-09T04:49:38;23.80;99.90
23156;DHT22;11746;50.876;4.246;2023-07-09T04:52:04;23.80;99.90
23156;DHT22;11746;50.876;4.246;2023-07-09T04:54:30;23.80;99.90
23156;DHT22;11746;50.876;4.246;2023-07-09T04:56:56;24.00;99.90
23156;DHT22;11746;50.876;4.246;2023-07-09T04:59:22;24.00;99.90
23156;DHT22;11746;50.876;4.246;2023-07-09T05:01:49;24.00;99.90
23156;DHT22;11746;50.876;4.246;2023-07-09T05:04:15;24.00;99.90
23156;DHT22;11746;50.876;4.246;2023-07-09T05:06:41;24.00;99.90
23156;DHT22;11746;50.876;4.246;2023-07-09T05:09:07;24.00;99.90
23156;DHT22;11746;50.876;4.246;2023-07-09T05:11:35;24.00;99.90
23156;DHT22;11746;50.876;4.246;2023-07-09T05:14:02;24.00;99.90
23156;DHT22;11746;50.876;4.246;2023-07-09T05:16:29;23.60;99.90
23156;DHT22;11746;50.876;4.246;2023-07-09T05:18:54;23.30;99.90
23156;DHT22;11746;50.876;4.246;2023-07-09T05:21:20;23.00;99.90
23156;DHT22;11746;50.876;4.246;2023-07-09T05:23:46;22.80;99.90
23156;DHT22;11746;50.876;4.246;2023-07-09T05:26:12;22.70;99.90
23156;DHT22;11746;50.876;4.246;2023-07-09T05:28:38;22.50;99.90
23156;DHT22;11746;50.876;4.246;2023-07-09T05:31:05;22.50;99.90
23156;DHT22;11746;50.876;4.246;2023-07-09T05:33:31;22.60;99.90
23156;DHT22;11746;50.876;4.246;2023-07-09T05:35:57;22.70;99.90
23156;DHT22;11746;50.876;4.246;2023-07-09T05:38:23;22.60;99.90
23156;DHT22;11746;50.876;4.246;2023-07-09T05:41:01;22.70;99.90
23156;DHT22;11746;50.876;4.246;2023-07-09T05:43:29;22.70;99.90
23156;DHT22;11746;50.876;4.246;2023-07-09T05:45:54;22.80;99.90
23156;DHT22;11746;50.876;4.246;2023-07-09T05:48:20;22.90;99.90
23156;DHT22;11746;50.876;4.246;2023-07-09T05:50:53;22.90;99.90
23156;DHT22;11746;50.876;4.246;2023-07-09T05:53:20;23.00;99.90
23156;DHT22;11746;50.876;4.246;2023-07-09T05:55:46;22.90;99.90
23156;DHT22;11746;50.876;4.246;2023-07-09T05:58:12;22.90;99.90
23156;DHT22;11746;50.876;4.246;2023-07-09T06:00:38;23.00;99.90
23156;DHT22;11746;50.876;4.246;2023-07-09T06:03:06;22.90;99.90
23156;DHT22;11746;50.876;4.246;2023-07-09T06:05:36;22.90;99.90
23156;DHT22;11746;50.876;4.246;2023-07-09T06:08:03;23.00;99.90
23156;DHT22;11746;50.876;4.246;2023-07-09T06:10:29;23.20;99.90
23156;DHT22;11746;50.876;4.246;2023-07-09T06:12:56;23.10;99.90
23156;DHT22;11746;50.876;4.246;2023-07-09T06:15:25;23.20;99.90
23156;DHT22;11746;50.876;4.246;2023-07-09T06:17:51;23.10;99.90
23156;DHT22;11746;50.876;4.246;2023-07-09T06:20:17;23.00;99.90
23156;DHT22;11746;50.876;4.246;2023-07-09T06:22:43;23.10;99.90
23156;DHT22;11746;50.876;4.246;2023-07-09T06:25:09;23.10;99.90
23156;DHT22;11746;50.876;4.246;2023-07-09T06:27:35;22.90;99.90
23156;DHT22;11746;50.876;4.246;2023-07-09T06:30:01;23.00;99.90
23156;DHT22;11746;50.876;4.246;2023-07-09T06:32:27;23.00;99.90
23156;DHT22;11746;50.876;4.246;2023-07-09T06:34:53;23.10;99.90
23156;DHT22;11746;50.876;4.246;2023-07-09T06:37:18;23.20;99.90
23156;DHT22;11746;50.876;4.246;2023-07-09T06:39:44;23.30;99.90
23156;DHT22;11746;50.876;4.246;2023-07-09T06:42:11;23.30;99.90
23156;DHT22;11746;50.876;4.246;2023-07-09T06:44:37;23.30;99.90
23156;DHT22;11746;50.876;4.246;2023-07-09T06:47:03;23.50;99.90
23156;DHT22;11746;50.876;4.246;2023-07-09T06:49:29;23.40;99.90
23156;DHT22;11746;50.876;4.246;2023-07-09T06:51:54;23.30;99.90
23156;DHT22;11746;50.876;4.246;2023-07-09T06:54:20;23.40;99.90
23156;DHT22;11746;50.876;4.246;2023-07-09T06:56:46;23.40;99.90
23156;DHT22;11746;50.876;4.246;2023-07-09T06:59:12;23.50;99.90
23156;DHT22;11746;50.876;4.246;2023-07-09T07:01:38;23.50;99.90
23156;DHT22;11746;50.876;4.246;2023-07-09T07:04:04;23.40;99.90
23156;DHT22;11746;50.876;4.246;2023-07-09T07:06:30;23.50;99.90
23156;DHT22;11746;50.876;4.246;2023-07-09T07:08:56;23.40;99.90
23156;DHT22;11746;50.876;4.246;2023-07-09T07:11:22;23.40;99.90
23156;DHT22;11746;50.876;4.246;2023-07-09T07:13:48;23.30;99.90
23156;DHT22;11746;50.876;4.246;2023-07-09T07:16:16;23.40;99.90
23156;DHT22;11746;50.876;4.246;2023-07-09T07:18:42;23.50;99.90
23156;DHT22;11746;50.876;4.246;2023-07-09T07:21:08;23.60;99.90
23156;DHT22;11746;50.876;4.246;2023-07-09T07:23:34;23.80;99.90
23156;DHT22;11746;50.876;4.246;2023-07-09T07:26:00;23.80;99.90
23156;DHT22;11746;50.876;4.246;2023-07-09T07:28:26;24.00;99.90
23156;DHT22;11746;50.876;4.246;2023-07-09T07:31:00;24.00;99.90
23156;DHT22;11746;50.876;4.246;2023-07-09T07:33:25;24.00;99.90
23156;DHT22;11746;50.876;4.246;2023-07-09T07:35:51;24.10;99.90
23156;DHT22;11746;50.876;4.246;2023-07-09T07:38:17;24.20;99.90
23156;DHT22;11746;50.876;4.246;2023-07-09T07:40:46;24.10;99.90
23156;DHT22;11746;50.876;4.246;2023-07-09T07:43:12;24.30;99.90
23156;DHT22;11746;50.876;4.246;2023-07-09T07:45:42;24.30;99.90
23156;DHT22;11746;50.876;4.246;2023-07-09T07:48:08;24.30;99.90
23156;DHT22;11746;50.876;4.246;2023-07-09T07:50:34;24.30;99.90
23156;DHT22;11746;50.876;4.246;2023-07-09T07:53:01;24.30;99.90
23156;DHT22;11746;50.876;4.246;2023-07-09T07:55:27;24.40;99.90
23156;DHT22;11746;50.876;4.246;2023-07-09T07:57:53;24.30;99.90
23156;DHT22;11746;50.876;4.246;2023-07-09T08:00:19;24.50;99.90
23156;DHT22;11746;50.876;4.246;2023-07-09T08:02:45;24.50;99.90
23156;DHT22;11746;50.876;4.246;2023-07-09T08:05:11;24.60;99.90
23156;DHT22;11746;50.876;4.246;2023-07-09T08:07:37;24.70;99.90
23156;DHT22;11746;50.876;4.246;2023-07-09T08:10:03;24.80;99.90
23156;DHT22;11746;50.876;4.246;2023-07-09T08:12:31;24.70;99.90
23156;DHT22;11746;50.876;4.246;2023-07-09T08:14:59;24.70;99.90
23156;DHT22;11746;50.876;4.246;2023-07-09T08:17:25;24.70;99.90
23156;DHT22;11746;50.876;4.246;2023-07-09T08:19:52;24.80;99.90
23156;DHT22;11746;50.876;4.246;2023-07-09T08:22:19;24.90;99.90
23156;DHT22;11746;50.876;4.246;2023-07-09T08:24:49;25.10;99.90
23156;DHT22;11746;50.876;4.246;2023-07-09T08:27:15;25.20;99.90
23156;DHT22;11746;50.876;4.246;2023-07-09T08:29:41;25.30;99.90
23156;DHT22;11746;50.876;4.246;2023-07-09T08:32:08;25.40;99.90
23156;DHT22;11746;50.876;4.246;2023-07-09T08:34:39;25.50;99.90
23156;DHT22;11746;50.876;4.246;2023-07-09T08:37:06;25.70;99.90
23156;DHT22;11746;50.876;4.246;2023-07-09T08:39:32;25.40;99.90
23156;DHT22;11746;50.876;4.246;2023-07-09T08:42:26;25.30;99.90
23156;DHT22;11746;50.876;4.246;2023-07-09T08:45:12;25.50;99.90
23156;DHT22;11746;50.876;4.246;2023-07-09T08:48:02;25.80;99.90
23156;DHT22;11746;50.876;4.246;2023-07-09T08:50:42;26.00;99.90
23156;DHT22;11746;50.876;4.246;2023-07-09T08:53:35;26.10;99.90
23156;DHT22;11746;50.876;4.246;2023-07-09T08:56:02;26.10;99.90
23156;DHT22;11746;50.876;4.246;2023-07-09T08:58:31;26.00;99.90
23156;DHT22;11746;50.876;4.246;2023-07-09T09:01:00;26.10;99.90
23156;DHT22;11746;50.876;4.246;2023-07-09T09:03:38;26.10;99.90
23156;DHT22;11746;50.876;4.246;2023-07-09T09:06:17;26.20;99.90
23156;DHT22;11746;50.876;4.246;2023-07-09T09:12:18;26.00;99.90
23156;DHT22;11746;50.876;4.246;2023-07-09T09:14:53;26.10;99.90
23156;DHT22;11746;50.876;4.246;2023-07-09T09:17:20;26.20;99.90
23156;DHT22;11746;50.876;4.246;2023-07-09T09:19:55;26.30;99.90
23156;DHT22;11746;50.876;4.246;2023-07-09T09:22:24;26.60;99.90
23156;DHT22;11746;50.876;4.246;2023-07-09T09:25:22;26.50;99.90
23156;DHT22;11746;50.876;4.246;2023-07-09T09:27:50;26.50;99.90
23156;DHT22;11746;50.876;4.246;2023-07-09T09:30:21;26.60;99.90
23156;DHT22;11746;50.876;4.246;2023-07-09T09:32:57;26.70;99.90
23156;DHT22;11746;50.876;4.246;2023-07-09T09:35:38;26.80;99.90
23156;DHT22;11746;50.876;4.246;2023-07-09T09:38:13;26.70;99.90
23156;DHT22;11746;50.876;4.246;2023-07-09T09:40:41;26.90;99.90
23156;DHT22;11746;50.876;4.246;2023-07-09T09:43:14;26.90;99.90
23156;DHT22;11746;50.876;4.246;2023-07-09T09:45:40;26.90;99.90
23156;DHT22;11746;50.876;4.246;2023-07-09T09:48:18;27.00;99.90
23156;DHT22;11746;50.876;4.246;2023-07-09T09:50:46;26.90;99.90
23156;DHT22;11746;50.876;4.246;2023-07-09T09:53:21;27.00;99.90
23156;DHT22;11746;50.876;4.246;2023-07-09T09:55:48;27.00;99.90
23156;DHT22;11746;50.876;4.246;2023-07-09T09:58:17;27.30;99.90
23156;DHT22;11746;50.876;4.246;2023-07-09T10:00:51;27.40;99.90
23156;DHT22;11746;50.876;4.246;2023-07-09T10:03:18;27.40;99.90
23156;DHT22;11746;50.876;4.246;2023-07-09T10:05:57;27.30;99.90
23156;DHT22;11746;50.876;4.246;2023-07-09T10:14:02;27.00;99.90
23156;DHT22;11746;50.876;4.246;2023-07-09T10:16:38;27.00;99.90
23156;DHT22;11746;50.876;4.246;2023-07-09T10:19:59;27.00;99.90
23156;DHT22;11746;50.876;4.246;2023-07-09T10:22:13;27.10;99.90
23156;DHT22;11746;50.876;4.246;2023-07-09T10:25:00;27.10;99.90
23156;DHT22;11746;50.876;4.246;2023-07-09T10:30:44;26.90;99.90
23156;DHT22;11746;50.876;4.246;2023-07-09T10:33:15;26.80;99.90
23156;DHT22;11746;50.876;4.246;2023-07-09T10:36:12;26.90;99.90
23156;DHT22;11746;50.876;4.246;2023-07-09T10:38:57;26.80;99.90
23156;DHT22;11746;50.876;4.246;2023-07-09T10:41:26;26.50;99.90
23156;DHT22;11746;50.876;4.246;2023-07-09T10:44:40;26.40;99.90
23156;DHT22;11746;50.876;4.246;2023-07-09T10:47:26;26.50;99.90
23156;DHT22;11746;50.876;4.246;2023-07-09T10:49:54;26.60;99.90
23156;DHT22;11746;50.876;4.246;2023-07-09T10:52:27;26.70;99.90
23156;DHT22;11746;50.876;4.246;2023-07-09T10:58:11;26.80;99.90
23156;DHT22;11746;50.876;4.246;2023-07-09T11:00:41;26.90;99.90
23156;DHT22;11746;50.876;4.246;2023-07-09T11:03:20;27.00;99.90
23156;DHT22;11746;50.876;4.246;2023-07-09T11:05:49;27.20;99.90
23156;DHT22;11746;50.876;4.246;2023-07-09T11:08:21;27.20;99.90
23156;DHT22;11746;50.876;4.246;2023-07-09T11:11:14;27.20;99.90
23156;DHT22;11746;50.876;4.246;2023-07-09T11:13:53;27.20;99.90
23156;DHT22;11746;50.876;4.246;2023-07-09T11:16:43;27.20;99.90
23156;DHT22;11746;50.876;4.246;2023-07-09T11:19:17;27.10;99.90
23156;DHT22;11746;50.876;4.246;2023-07-09T11:25:14;26.80;99.90
23156;DHT22;11746;50.876;4.246;2023-07-09T11:30:20;26.70;99.90
23156;DHT22;11746;50.876;4.246;2023-07-09T11:32:47;26.60;99.90
23156;DHT22;11746;50.876;4.246;2023-07-09T11:35:27;26.70;99.90
23156;DHT22;11746;50.876;4.246;2023-07-09T11:37:54;26.70;99.90
23156;DHT22;11746;50.876;4.246;2023-07-09T11:40:22;26.70;99.90
23156;DHT22;11746;50.876;4.246;2023-07-09T11:42:55;26.60;99.90
23156;DHT22;11746;50.876;4.246;2023-07-09T11:45:28;26.60;99.90
23156;DHT22;11746;50.876;4.246;2023-07-09T11:48:20;26.50;99.90
23156;DHT22;11746;50.876;4.246;2023-07-09T11:50:50;26.40;99.90
23156;DHT22;11746;50.876;4.246;2023-07-09T11:53:41;26.40;99.90
23156;DHT22;11746;50.876;4.246;2023-07-09T11:56:08;26.30;99.90
23156;DHT22;11746;50.876;4.246;2023-07-09T11:58:35;26.20;99.90
23156;DHT22;11746;50.876;4.246;2023-07-09T12:01:01;26.20;99.90
23156;DHT22;11746;50.876;4.246;2023-07-09T12:03:33;26.20;99.90
23156;DHT22;11746;50.876;4.246;2023-07-09T12:06:23;26.00;99.90
23156;DHT22;11746;50.876;4.246;2023-07-09T12:08:51;25.80;99.90
23156;DHT22;11746;50.876;4.246;2023-07-09T12:11:30;25.70;99.90
23156;DHT22;11746;50.876;4.246;2023-07-09T12:14:04;25.70;99.90
23156;DHT22;11746;50.876;4.246;2023-07-09T12:16:34;25.60;99.90
23156;DHT22;11746;50.876;4.246;2023-07-09T12:19:03;25.50;99.90
23156;DHT22;11746;50.876;4.246;2023-07-09T12:21:31;25.50;99.90
23156;DHT22;11746;50.876;4.246;2023-07-09T12:23:57;25.70;99.90
23156;DHT22;11746;50.876;4.246;2023-07-09T12:26:23;25.60;99.90
23156;DHT22;11746;50.876;4.246;2023-07-09T12:28:56;25.20;99.90
23156;DHT22;11746;50.876;4.246;2023-07-09T12:31:29;25.00;99.90
23156;DHT22;11746;50.876;4.246;2023-07-09T12:33:57;25.10;99.90
23156;DHT22;11746;50.876;4.246;2023-07-09T12:36:28;25.00;99.90
23156;DHT22;11746;50.876;4.246;2023-07-09T12:38:59;25.00;99.90
23156;DHT22;11746;50.876;4.246;2023-07-09T12:41:35;24.70;99.90
23156;DHT22;11746;50.876;4.246;2023-07-09T12:44:02;24.30;99.90
23156;DHT22;11746;50.876;4.246;2023-07-09T12:46:29;24.00;99.90
23156;DHT22;11746;50.876;4.246;2023-07-09T12:48:56;24.00;99.90
23156;DHT22;11746;50.876;4.246;2023-07-09T12:51:23;23.90;99.90
23156;DHT22;11746;50.876;4.246;2023-07-09T12:54:29;23.90;99.90
23156;DHT22;11746;50.876;4.246;2023-07-09T12:56:56;23.90;99.90
23156;DHT22;11746;50.876;4.246;2023-07-09T12:59:26;23.70;99.90
23156;DHT22;11746;50.876;4.246;2023-07-09T13:04:42;23.40;99.90
23156;DHT22;11746;50.876;4.246;2023-07-09T13:07:36;23.30;99.90
23156;DHT22;11746;50.876;4.246;2023-07-09T13:10:11;23.50;99.90
23156;DHT22;11746;50.876;4.246;2023-07-09T13:12:40;23.50;99.90
23156;DHT22;11746;50.876;4.246;2023-07-09T13:15:29;23.70;99.90
23156;DHT22;11746;50.876;4.246;2023-07-09T13:18:01;23.80;99.90
23156;DHT22;11746;50.876;4.246;2023-07-09T13:20:28;23.90;99.90
23156;DHT22;11746;50.876;4.246;2023-07-09T13:22:55;23.90;99.90
23156;DHT22;11746;50.876;4.246;2023-07-09T13:25:22;24.00;99.90
23156;DHT22;11746;50.876;4.246;2023-07-09T13:27:48;24.10;99.90
23156;DHT22;11746;50.876;4.246;2023-07-09T13:30:14;24.10;99.90
23156;DHT22;11746;50.876;4.246;2023-07-09T13:32:40;24.10;99.90
23156;DHT22;11746;50.876;4.246;2023-07-09T13:35:15;24.20;99.90
23156;DHT22;11746;50.876;4.246;2023-07-09T13:37:43;24.20;99.90
23156;DHT22;11746;50.876;4.246;2023-07-09T13:40:14;24.30;99.90
23156;DHT22;11746;50.876;4.246;2023-07-09T13:42:42;24.40;99.90
23156;DHT22;11746;50.876;4.246;2023-07-09T13:45:20;24.50;99.90
23156;DHT22;11746;50.876;4.246;2023-07-09T13:47:46;24.50;99.90
23156;DHT22;11746;50.876;4.246;2023-07-09T13:50:13;24.60;99.90
23156;DHT22;11746;50.876;4.246;2023-07-09T13:52:40;24.50;99.90
23156;DHT22;11746;50.876;4.246;2023-07-09T13:55:09;24.60;99.90
23156;DHT22;11746;50.876;4.246;2023-07-09T13:57:37;24.70;99.90
23156;DHT22;11746;50.876;4.246;2023-07-09T14:00:03;24.80;99.90
23156;DHT22;11746;50.876;4.246;2023-07-09T14:02:31;25.00;99.90
23156;DHT22;11746;50.876;4.246;2023-07-09T14:05:02;25.40;99.90
23156;DHT22;11746;50.876;4.246;2023-07-09T14:07:29;25.80;99.90
23156;DHT22;11746;50.876;4.246;2023-07-09T14:10:00;26.10;99.90
23156;DHT22;11746;50.876;4.246;2023-07-09T14:12:28;26.30;99.90
23156;DHT22;11746;50.876;4.246;2023-07-09T14:14:57;26.50;99.90
23156;DHT22;11746;50.876;4.246;2023-07-09T14:17:25;27.00;99.90
23156;DHT22;11746;50.876;4.246;2023-07-09T14:19:52;27.10;99.90
23156;DHT22;11746;50.876;4.246;2023-07-09T14:22:21;27.40;99.90
23156;DHT22;11746;50.876;4.246;2023-07-09T14:24:49;27.80;99.90
23156;DHT22;11746;50.876;4.246;2023-07-09T14:27:14;28.10;99.90
23156;DHT22;11746;50.876;4.246;2023-07-09T14:29:40;28.20;99.90
23156;DHT22;11746;50.876;4.246;2023-07-09T14:32:37;28.50;99.90
23156;DHT22;11746;50.876;4.246;2023-07-09T14:35:24;28.20;99.90
23156;DHT22;11746;50.876;4.246;2023-07-09T14:37:53;28.10;99.90
23156;DHT22;11746;50.876;4.246;2023-07-09T14:40:21;27.70;99.90
23156;DHT22;11746;50.876;4.246;2023-07-09T14:42:48;27.40;99.90
23156;DHT22;11746;50.876;4.246;2023-07-09T14:45:22;27.40;99.90
23156;DHT22;11746;50.876;4.246;2023-07-09T14:47:52;27.20;99.90
23156;DHT22;11746;50.876;4.246;2023-07-09T14:50:19;26.90;99.90
23156;DHT22;11746;50.876;4.246;2023-07-09T14:52:46;27.20;99.90
23156;DHT22;11746;50.876;4.246;2023-07-09T14:55:22;27.10;99.90
23156;DHT22;11746;50.876;4.246;2023-07-09T14:57:50;27.10;99.90
23156;DHT22;11746;50.876;4.246;2023-07-09T15:00:19;27.20;99.90
23156;DHT22;11746;50.876;4.246;2023-07-09T15:02:46;27.60;99.90
23156;DHT22;11746;50.876;4.246;2023-07-09T15:07:43;28.40;99.90
23156;DHT22;11746;50.876;4.246;2023-07-09T15:10:18;28.40;99.90
23156;DHT22;11746;50.876;4.246;2023-07-09T15:12:47;28.10;99.90
23156;DHT22;11746;50.876;4.246;2023-07-09T15:15:25;28.40;99.90
23156;DHT22;11746;50.876;4.246;2023-07-09T15:17:51;28.60;99.90
23156;DHT22;11746;50.876;4.246;2023-07-09T15:20:19;28.60;99.90
23156;DHT22;11746;50.876;4.246;2023-07-09T15:22:46;28.90;99.90
23156;DHT22;11746;50.876;4.246;2023-07-09T15:25:23;28.90;99.90
23156;DHT22;11746;50.876;4.246;2023-07-09T15:27:49;29.10;99.90
23156;DHT22;11746;50.876;4.246;2023-07-09T15:30:18;28.80;99.90
23156;DHT22;11746;50.876;4.246;2023-07-09T15:32:46;28.20;99.90
23156;DHT22;11746;50.876;4.246;2023-07-09T15:35:13;27.80;99.90
23156;DHT22;11746;50.876;4.246;2023-07-09T15:37:40;27.70;99.90
23156;DHT22;11746;50.876;4.246;2023-07-09T15:42:44;27.20;99.90
23156;DHT22;11746;50.876;4.246;2023-07-09T15:45:14;27.60;99.90
23156;DHT22;11746;50.876;4.246;2023-07-09T15:47:41;27.60;99.90
23156;DHT22;11746;50.876;4.246;2023-07-09T15:52:44;27.50;99.90
23156;DHT22;11746;50.876;4.246;2023-07-09T15:55:20;27.00;99.90
23156;DHT22;11746;50.876;4.246;2023-07-09T15:57:47;26.60;99.90
23156;DHT22;11746;50.876;4.246;2023-07-09T16:00:34;27.10;99.90
23156;DHT22;11746;50.876;4.246;2023-07-09T16:03:00;27.40;99.90
23156;DHT22;11746;50.876;4.246;2023-07-09T16:05:30;27.20;99.90
23156;DHT22;11746;50.876;4.246;2023-07-09T16:07:59;27.20;99.90
23156;DHT22;11746;50.876;4.246;2023-07-09T16:10:27;26.90;99.90
23156;DHT22;11746;50.876;4.246;2023-07-09T16:12:56;26.70;99.90
23156;DHT22;11746;50.876;4.246;2023-07-09T16:15:23;26.60;99.90
23156;DHT22;11746;50.876;4.246;2023-07-09T16:17:50;26.30;99.90
23156;DHT22;11746;50.876;4.246;2023-07-09T16:20:21;26.30;99.90